sensor_id;sensor_type;location;lat;lon;timestamp;temperature;humidity
27072;DHT22;14613;46.308;25.288;2022-12-26T00:01:49;5.00;90.00
27072;DHT22;14613;46.308;25.288;2022-12-26T00:04:16;5.00;90.00
27072;DHT22;14613;46.308;25.288;2022-12-26T00:06:42;4.90;89.80
27072;DHT22;14613;46.308;25.288;2022-12-26T00:09:09;4.90;89.80
27072;DHT22;14613;46.308;25.288;2022-12-26T00:11:35;4.90;89.80
27072;DHT22;14613;46.308;25.288;2022-12-26T00:14:07;4.90;89.80
27072;DHT22;14613;46.308;25.288;2022-12-26T00:16:35;4.80;89.70
27072;DHT22;14613;46.308;25.288;2022-12-26T00:19:01;4.80;89.60
27072;DHT22;14613;46.308;25.288;2022-12-26T00:21:28;4.70;89.60
27072;DHT22;14613;46.308;25.288;2022-12-26T00:23:55;4.70;89.60
27072;DHT22;14613;46.308;25.288;2022-12-26T00:26:23;4.70;89.70
27072;DHT22;14613;46.308;25.288;2022-12-26T00:28:50;4.60;89.70
27072;DHT22;14613;46.308;25.288;2022-12-26T00:31:19;4.60;89.80
27072;DHT22;14613;46.308;25.288;2022-12-26T00:33:46;4.50;90.00
27072;DHT22;14613;46.308;25.288;2022-12-26T00:36:17;4.40;90.10
27072;DHT22;14613;46.308;25.288;2022-12-26T00:38:44;4.30;90.20
27072;DHT22;14613;46.308;25.288;2022-12-26T00:41:11;4.20;90.20
27072;DHT22;14613;46.308;25.288;2022-12-26T00:43:37;4.20;90.30
27072;DHT22;14613;46.308;25.288;2022-12-26T00:46:04;4.20;90.30
27072;DHT22;14613;46.308;25.288;2022-12-26T00:48:30;4.20;90.40
27072;DHT22;14613;46.308;25.288;2022-12-26T00:50:56;4.10;90.30
27072;DHT22;14613;46.308;25.288;2022-12-26T00:53:23;4.00;90.30
27072;DHT22;14613;46.308;25.288;2022-12-26T00:55:49;4.00;90.40
27072;DHT22;14613;46.308;25.288;2022-12-26T00:58:16;4.00;90.40
27072;DHT22;14613;46.308;25.288;2022-12-26T01:00:42;4.10;90.40
27072;DHT22;14613;46.308;25.288;2022-12-26T01:03:09;4.10;90.30
27072;DHT22;14613;46.308;25.288;2022-12-26T01:05:39;4.10;90.30
27072;DHT22;14613;46.308;25.288;2022-12-26T01:08:04;4.10;90.20
27072;DHT22;14613;46.308;25.288;2022-12-26T01:10:30;4.20;90.20
27072;DHT22;14613;46.308;25.288;2022-12-26T01:12:56;4.20;90.10
27072;DHT22;14613;46.308;25.288;2022-12-26T01:15:22;4.20;90.10
27072;DHT22;14613;46.308;25.288;2022-12-26T01:17:47;4.20;90.00
27072;DHT22;14613;46.308;25.288;2022-12-26T01:20:13;4.20;90.00
27072;DHT22;14613;46.308;25.288;2022-12-26T01:22:39;4.20;90.10
27072;DHT22;14613;46.308;25.288;2022-12-26T01:25:05;4.20;90.00
27072;DHT22;14613;46.308;25.288;2022-12-26T01:27:31;4.20;90.00
27072;DHT22;14613;46.308;25.288;2022-12-26T01:29:57;4.20;89.90
27072;DHT22;14613;46.308;25.288;2022-12-26T01:32:23;4.30;89.90
27072;DHT22;14613;46.308;25.288;2022-12-26T01:34:48;4.30;89.80
27072;DHT22;14613;46.308;25.288;2022-12-26T01:37:17;4.30;89.80
27072;DHT22;14613;46.308;25.288;2022-12-26T01:39:42;4.30;89.70
27072;DHT22;14613;46.308;25.288;2022-12-26T01:42:20;4.30;89.80
27072;DHT22;14613;46.308;25.288;2022-12-26T01:53:54;4.40;89.90
27072;DHT22;14613;46.308;25.288;2022-12-26T01:56:16;4.30;89.70
27072;DHT22;14613;46.308;25.288;2022-12-26T01:58:47;4.40;89.70
27072;DHT22;14613;46.308;25.288;2022-12-26T02:01:14;4.30;89.60
27072;DHT22;14613;46.308;25.288;2022-12-26T02:03:43;4.30;89.60
27072;DHT22;14613;46.308;25.288;2022-12-26T02:06:28;4.30;89.60
27072;DHT22;14613;46.308;25.288;2022-12-26T02:08:54;4.30;89.60
27072;DHT22;14613;46.308;25.288;2022-12-26T02:13:48;4.30;89.70
27072;DHT22;14613;46.308;25.288;2022-12-26T02:16:16;4.30;89.60
27072;DHT22;14613;46.308;25.288;2022-12-26T02:18:42;4.30;89.60
27072;DHT22;14613;46.308;25.288;2022-12-26T02:24:13;4.20;89.40
27072;DHT22;14613;46.308;25.288;2022-12-26T02:40:10;4.00;90.00
27072;DHT22;14613;46.308;25.288;2022-12-26T02:42:58;4.00;90.00
27072;DHT22;14613;46.308;25.288;2022-12-26T02:57:22;4.00;90.10
27072;DHT22;14613;46.308;25.288;2022-12-26T03:00:16;4.00;90.10
27072;DHT22;14613;46.308;25.288;2022-12-26T03:06:39;3.90;90.00
27072;DHT22;14613;46.308;25.288;2022-12-26T03:09:30;3.90;90.00
27072;DHT22;14613;46.308;25.288;2022-12-26T03:15:08;3.90;89.90
27072;DHT22;14613;46.308;25.288;2022-12-26T03:17:42;3.80;89.90
27072;DHT22;14613;46.308;25.288;2022-12-26T03:25:12;3.80;90.10
27072;DHT22;14613;46.308;25.288;2022-12-26T03:27:58;3.70;90.10
27072;DHT22;14613;46.308;25.288;2022-12-26T03:30:24;3.60;90.30
27072;DHT22;14613;46.308;25.288;2022-12-26T03:33:08;3.50;90.40
27072;DHT22;14613;46.308;25.288;2022-12-26T03:35:54;3.50;90.50
27072;DHT22;14613;46.308;25.288;2022-12-26T03:38:23;3.50;90.50
27072;DHT22;14613;46.308;25.288;2022-12-26T03:41:05;3.60;90.40
27072;DHT22;14613;46.308;25.288;2022-12-26T03:47:26;3.50;90.30
27072;DHT22;14613;46.308;25.288;2022-12-26T03:53:19;3.60;90.30
27072;DHT22;14613;46.308;25.288;2022-12-26T03:56:24;3.60;90.20
27072;DHT22;14613;46.308;25.288;2022-12-26T03:59:15;3.60;90.20
27072;DHT22;14613;46.308;25.288;2022-12-26T04:02:04;3.60;90.20
27072;DHT22;14613;46.308;25.288;2022-12-26T04:04:52;3.60;90.10
27072;DHT22;14613;46.308;25.288;2022-12-26T04:07:45;3.60;90.10
27072;DHT22;14613;46.308;25.288;2022-12-26T04:10:44;3.60;90.10
27072;DHT22;14613;46.308;25.288;2022-12-26T04:16:51;3.50;90.00
27072;DHT22;14613;46.308;25.288;2022-12-26T04:25:21;3.50;90.00
27072;DHT22;14613;46.308;25.288;2022-12-26T04:28:06;3.50;90.00
27072;DHT22;14613;46.308;25.288;2022-12-26T04:31:04;3.40;89.90
27072;DHT22;14613;46.308;25.288;2022-12-26T04:33:55;3.40;89.90
27072;DHT22;14613;46.308;25.288;2022-12-26T04:36:47;3.40;89.80
27072;DHT22;14613;46.308;25.288;2022-12-26T04:39:34;3.40;89.80
27072;DHT22;14613;46.308;25.288;2022-12-26T04:42:20;3.40;89.80
27072;DHT22;14613;46.308;25.288;2022-12-26T04:45:06;3.40;89.70
27072;DHT22;14613;46.308;25.288;2022-12-26T04:47:33;3.40;89.70
27072;DHT22;14613;46.308;25.288;2022-12-26T04:50:04;3.40;89.60
27072;DHT22;14613;46.308;25.288;2022-12-26T04:52:36;3.40;89.60
27072;DHT22;14613;46.308;25.288;2022-12-26T04:55:24;3.40;89.60
27072;DHT22;14613;46.308;25.288;2022-12-26T04:57:51;3.30;89.60
27072;DHT22;14613;46.308;25.288;2022-12-26T05:00:17;3.30;89.70
27072;DHT22;14613;46.308;25.288;2022-12-26T05:02:43;3.30;89.90
27072;DHT22;14613;46.308;25.288;2022-12-26T05:05:27;3.30;89.90
27072;DHT22;14613;46.308;25.288;2022-12-26T05:08:23;3.20;90.00
27072;DHT22;14613;46.308;25.288;2022-12-26T05:11:09;3.20;90.00
27072;DHT22;14613;46.308;25.288;2022-12-26T05:13:34;3.30;90.00
27072;DHT22;14613;46.308;25.288;2022-12-26T05:16:00;3.30;90.10
27072;DHT22;14613;46.308;25.288;2022-12-26T05:18:45;3.30;90.00
27072;DHT22;14613;46.308;25.288;2022-12-26T05:21:29;3.40;90.00
27072;DHT22;14613;46.308;25.288;2022-12-26T05:24:14;3.40;90.00
27072;DHT22;14613;46.308;25.288;2022-12-26T05:26:58;3.40;89.90
27072;DHT22;14613;46.308;25.288;2022-12-26T05:29:42;3.50;89.90
27072;DHT22;14613;46.308;25.288;2022-12-26T05:32:08;3.50;89.90
27072;DHT22;14613;46.308;25.288;2022-12-26T05:34:34;3.50;89.80
27072;DHT22;14613;46.308;25.288;2022-12-26T05:36:59;3.50;89.90
27072;DHT22;14613;46.308;25.288;2022-12-26T05:39:25;3.50;89.80
27072;DHT22;14613;46.308;25.288;2022-12-26T05:41:51;3.50;89.90
27072;DHT22;14613;46.308;25.288;2022-12-26T05:44:17;3.50;90.00
27072;DHT22;14613;46.308;25.288;2022-12-26T05:46:43;3.50;90.00
27072;DHT22;14613;46.308;25.288;2022-12-26T05:49:09;3.40;90.10
27072;DHT22;14613;46.308;25.288;2022-12-26T05:51:35;3.40;90.60
27072;DHT22;14613;46.308;25.288;2022-12-26T05:54:01;3.40;90.30
27072;DHT22;14613;46.308;25.288;2022-12-26T05:56:27;3.40;90.30
27072;DHT22;14613;46.308;25.288;2022-12-26T05:58:58;3.50;90.30
27072;DHT22;14613;46.308;25.288;2022-12-26T06:01:26;3.50;90.30
27072;DHT22;14613;46.308;25.288;2022-12-26T06:03:54;3.60;90.20
27072;DHT22;14613;46.308;25.288;2022-12-26T06:06:21;3.70;90.20
27072;DHT22;14613;46.308;25.288;2022-12-26T06:08:51;3.70;90.20
27072;DHT22;14613;46.308;25.288;2022-12-26T06:11:18;3.70;90.10
27072;DHT22;14613;46.308;25.288;2022-12-26T06:13:44;3.70;90.10
27072;DHT22;14613;46.308;25.288;2022-12-26T06:16:13;3.80;90.10
27072;DHT22;14613;46.308;25.288;2022-12-26T06:18:39;3.70;90.10
27072;DHT22;14613;46.308;25.288;2022-12-26T06:21:07;3.80;90.50
27072;DHT22;14613;46.308;25.288;2022-12-26T06:23:34;3.80;90.20
27072;DHT22;14613;46.308;25.288;2022-12-26T06:26:00;3.80;90.20
27072;DHT22;14613;46.308;25.288;2022-12-26T06:28:26;3.90;90.20
27072;DHT22;14613;46.308;25.288;2022-12-26T06:30:52;3.90;90.20
27072;DHT22;14613;46.308;25.288;2022-12-26T06:33:19;3.90;90.20
27072;DHT22;14613;46.308;25.288;2022-12-26T06:35:45;4.00;90.20
27072;DHT22;14613;46.308;25.288;2022-12-26T06:38:11;4.00;90.10
27072;DHT22;14613;46.308;25.288;2022-12-26T06:40:41;4.10;90.10
27072;DHT22;14613;46.308;25.288;2022-12-26T06:43:07;4.10;90.10
27072;DHT22;14613;46.308;25.288;2022-12-26T06:45:34;4.10;90.00
27072;DHT22;14613;46.308;25.288;2022-12-26T06:48:00;4.20;90.10
27072;DHT22;14613;46.308;25.288;2022-12-26T06:50:26;4.20;90.10
27072;DHT22;14613;46.308;25.288;2022-12-26T06:52:52;4.30;90.10
27072;DHT22;14613;46.308;25.288;2022-12-26T06:55:17;4.30;90.10
27072;DHT22;14613;46.308;25.288;2022-12-26T06:57:43;4.30;90.10
27072;DHT22;14613;46.308;25.288;2022-12-26T07:00:10;4.40;90.10
27072;DHT22;14613;46.308;25.288;2022-12-26T07:02:36;4.40;90.10
27072;DHT22;14613;46.308;25.288;2022-12-26T07:05:02;4.50;90.10
27072;DHT22;14613;46.308;25.288;2022-12-26T07:07:27;4.50;90.20
27072;DHT22;14613;46.308;25.288;2022-12-26T07:09:53;4.60;90.20
27072;DHT22;14613;46.308;25.288;2022-12-26T07:12:19;4.60;90.20
27072;DHT22;14613;46.308;25.288;2022-12-26T07:14:47;4.70;90.30
27072;DHT22;14613;46.308;25.288;2022-12-26T07:17:13;4.70;90.30
27072;DHT22;14613;46.308;25.288;2022-12-26T07:19:39;4.80;90.30
27072;DHT22;14613;46.308;25.288;2022-12-26T07:22:05;4.90;90.40
27072;DHT22;14613;46.308;25.288;2022-12-26T07:24:31;4.90;90.30
27072;DHT22;14613;46.308;25.288;2022-12-26T07:26:56;4.90;90.20
27072;DHT22;14613;46.308;25.288;2022-12-26T07:29:22;4.90;90.30
27072;DHT22;14613;46.308;25.288;2022-12-26T07:31:48;4.90;90.30
27072;DHT22;14613;46.308;25.288;2022-12-26T07:34:14;5.00;90.40
27072;DHT22;14613;46.308;25.288;2022-12-26T07:36:40;5.10;90.40
27072;DHT22;14613;46.308;25.288;2022-12-26T07:39:06;5.10;90.40
27072;DHT22;14613;46.308;25.288;2022-12-26T07:41:32;5.20;90.40
27072;DHT22;14613;46.308;25.288;2022-12-26T07:44:16;5.30;90.40
27072;DHT22;14613;46.308;25.288;2022-12-26T07:46:42;5.40;90.40
27072;DHT22;14613;46.308;25.288;2022-12-26T07:49:10;5.50;90.40
27072;DHT22;14613;46.308;25.288;2022-12-26T07:51:36;5.50;90.40
27072;DHT22;14613;46.308;25.288;2022-12-26T07:54:02;5.60;90.40
27072;DHT22;14613;46.308;25.288;2022-12-26T07:56:29;5.70;90.50
27072;DHT22;14613;46.308;25.288;2022-12-26T07:58:55;5.80;90.50
27072;DHT22;14613;46.308;25.288;2022-12-26T08:01:21;5.90;90.50
27072;DHT22;14613;46.308;25.288;2022-12-26T08:03:48;6.00;90.50
27072;DHT22;14613;46.308;25.288;2022-12-26T08:06:14;6.10;90.40
27072;DHT22;14613;46.308;25.288;2022-12-26T08:08:39;6.20;90.40
27072;DHT22;14613;46.308;25.288;2022-12-26T08:11:07;6.20;90.40
27072;DHT22;14613;46.308;25.288;2022-12-26T08:13:33;6.30;90.30
27072;DHT22;14613;46.308;25.288;2022-12-26T08:16:04;6.40;90.30
27072;DHT22;14613;46.308;25.288;2022-12-26T08:18:30;6.40;90.30
27072;DHT22;14613;46.308;25.288;2022-12-26T08:20:57;6.50;90.30
27072;DHT22;14613;46.308;25.288;2022-12-26T08:23:23;6.50;90.30
27072;DHT22;14613;46.308;25.288;2022-12-26T08:25:48;6.60;90.30
27072;DHT22;14613;46.308;25.288;2022-12-26T08:28:15;6.70;90.30
27072;DHT22;14613;46.308;25.288;2022-12-26T08:30:41;6.70;90.20
27072;DHT22;14613;46.308;25.288;2022-12-26T08:33:07;6.70;90.20
27072;DHT22;14613;46.308;25.288;2022-12-26T08:35:34;6.80;90.20
27072;DHT22;14613;46.308;25.288;2022-12-26T08:38:00;6.90;90.30
27072;DHT22;14613;46.308;25.288;2022-12-26T08:40:26;6.90;90.20
27072;DHT22;14613;46.308;25.288;2022-12-26T08:42:52;7.00;90.30
27072;DHT22;14613;46.308;25.288;2022-12-26T08:45:18;7.00;90.10
27072;DHT22;14613;46.308;25.288;2022-12-26T08:47:44;7.10;90.20
27072;DHT22;14613;46.308;25.288;2022-12-26T08:50:10;7.10;90.20
27072;DHT22;14613;46.308;25.288;2022-12-26T08:52:36;7.20;90.20
27072;DHT22;14613;46.308;25.288;2022-12-26T08:55:02;7.20;90.10
27072;DHT22;14613;46.308;25.288;2022-12-26T08:57:28;7.20;90.10
27072;DHT22;14613;46.308;25.288;2022-12-26T08:59:54;7.30;90.20
27072;DHT22;14613;46.308;25.288;2022-12-26T09:02:20;7.40;90.20
27072;DHT22;14613;46.308;25.288;2022-12-26T09:04:46;7.40;90.20
27072;DHT22;14613;46.308;25.288;2022-12-26T09:07:12;7.50;90.20
27072;DHT22;14613;46.308;25.288;2022-12-26T09:09:37;7.50;90.20
27072;DHT22;14613;46.308;25.288;2022-12-26T09:12:04;7.60;90.20
27072;DHT22;14613;46.308;25.288;2022-12-26T09:14:29;7.70;90.20
27072;DHT22;14613;46.308;25.288;2022-12-26T09:16:55;7.80;90.30
27072;DHT22;14613;46.308;25.288;2022-12-26T09:19:22;7.80;90.30
27072;DHT22;14613;46.308;25.288;2022-12-26T09:21:49;7.90;90.20
27072;DHT22;14613;46.308;25.288;2022-12-26T09:24:34;8.00;90.10
27072;DHT22;14613;46.308;25.288;2022-12-26T09:27:00;8.00;90.00
27072;DHT22;14613;46.308;25.288;2022-12-26T09:29:26;8.10;90.00
27072;DHT22;14613;46.308;25.288;2022-12-26T09:31:54;8.10;89.70
27072;DHT22;14613;46.308;25.288;2022-12-26T09:34:20;8.10;89.40
27072;DHT22;14613;46.308;25.288;2022-12-26T09:36:45;8.10;89.30
27072;DHT22;14613;46.308;25.288;2022-12-26T09:39:11;8.10;89.10
27072;DHT22;14613;46.308;25.288;2022-12-26T09:44:20;8.00;89.00
27072;DHT22;14613;46.308;25.288;2022-12-26T09:49:23;8.00;89.40
27072;DHT22;14613;46.308;25.288;2022-12-26T09:51:54;8.00;89.60
27072;DHT22;14613;46.308;25.288;2022-12-26T09:54:42;8.00;89.70
27072;DHT22;14613;46.308;25.288;2022-12-26T09:57:22;8.00;89.70
27072;DHT22;14613;46.308;25.288;2022-12-26T09:59:59;8.10;89.70
27072;DHT22;14613;46.308;25.288;2022-12-26T10:02:26;8.10;89.60
27072;DHT22;14613;46.308;25.288;2022-12-26T10:04:53;8.20;89.70
27072;DHT22;14613;46.308;25.288;2022-12-26T10:13:13;8.30;89.60
27072;DHT22;14613;46.308;25.288;2022-12-26T10:15:52;8.40;89.50
27072;DHT22;14613;46.308;25.288;2022-12-26T10:24:02;8.40;89.10
27072;DHT22;14613;46.308;25.288;2022-12-26T10:26:35;8.50;89.10
27072;DHT22;14613;46.308;25.288;2022-12-26T10:31:59;8.50;89.10
27072;DHT22;14613;46.308;25.288;2022-12-26T10:34:55;8.50;89.10
27072;DHT22;14613;46.308;25.288;2022-12-26T10:42:35;8.70;89.10
27072;DHT22;14613;46.308;25.288;2022-12-26T10:45:17;8.70;89.00
27072;DHT22;14613;46.308;25.288;2022-12-26T10:47:50;8.80;89.00
27072;DHT22;14613;46.308;25.288;2022-12-26T10:50:20;8.80;89.00
27072;DHT22;14613;46.308;25.288;2022-12-26T10:52:47;8.90;89.00
27072;DHT22;14613;46.308;25.288;2022-12-26T10:55:18;8.90;88.90
27072;DHT22;14613;46.308;25.288;2022-12-26T10:57:47;9.00;89.00
27072;DHT22;14613;46.308;25.288;2022-12-26T11:00:25;9.00;89.00
27072;DHT22;14613;46.308;25.288;2022-12-26T11:03:03;9.10;89.00
27072;DHT22;14613;46.308;25.288;2022-12-26T11:05:29;9.20;88.90
27072;DHT22;14613;46.308;25.288;2022-12-26T11:08:14;9.20;88.90
27072;DHT22;14613;46.308;25.288;2022-12-26T11:11:03;9.30;88.90
27072;DHT22;14613;46.308;25.288;2022-12-26T11:13:38;9.30;88.80
27072;DHT22;14613;46.308;25.288;2022-12-26T11:16:05;9.40;88.90
27072;DHT22;14613;46.308;25.288;2022-12-26T11:18:37;9.50;88.90
27072;DHT22;14613;46.308;25.288;2022-12-26T11:21:31;9.60;88.90
27072;DHT22;14613;46.308;25.288;2022-12-26T11:26:36;9.70;88.40
27072;DHT22;14613;46.308;25.288;2022-12-26T11:29:20;9.80;88.30
27072;DHT22;14613;46.308;25.288;2022-12-26T11:31:57;9.80;88.10
27072;DHT22;14613;46.308;25.288;2022-12-26T11:34:32;9.90;88.00
27072;DHT22;14613;46.308;25.288;2022-12-26T11:36:59;9.90;87.80
27072;DHT22;14613;46.308;25.288;2022-12-26T11:39:31;10.00;87.80
27072;DHT22;14613;46.308;25.288;2022-12-26T11:41:58;10.00;87.70
27072;DHT22;14613;46.308;25.288;2022-12-26T11:44:34;10.10;87.70
27072;DHT22;14613;46.308;25.288;2022-12-26T11:47:09;10.10;87.60
27072;DHT22;14613;46.308;25.288;2022-12-26T11:49:53;10.10;87.40
27072;DHT22;14613;46.308;25.288;2022-12-26T11:52:47;10.20;87.40
27072;DHT22;14613;46.308;25.288;2022-12-26T12:01:20;10.30;87.30
27072;DHT22;14613;46.308;25.288;2022-12-26T12:03:42;10.30;87.20
27072;DHT22;14613;46.308;25.288;2022-12-26T12:16:58;10.40;87.10
27072;DHT22;14613;46.308;25.288;2022-12-26T12:27:36;10.60;87.00
27072;DHT22;14613;46.308;25.288;2022-12-26T12:30:22;10.60;86.90
27072;DHT22;14613;46.308;25.288;2022-12-26T12:33:09;10.60;86.80
27072;DHT22;14613;46.308;25.288;2022-12-26T12:53:03;10.90;86.20
27072;DHT22;14613;46.308;25.288;2022-12-26T12:58:29;11.00;86.00
27072;DHT22;14613;46.308;25.288;2022-12-26T13:01:43;11.00;85.90
27072;DHT22;14613;46.308;25.288;2022-12-26T13:04:36;11.00;85.80
27072;DHT22;14613;46.308;25.288;2022-12-26T13:06:37;11.00;85.80
27072;DHT22;14613;46.308;25.288;2022-12-26T13:12:07;11.00;85.60
27072;DHT22;14613;46.308;25.288;2022-12-26T13:14:40;11.00;85.60
27072;DHT22;14613;46.308;25.288;2022-12-26T13:17:13;11.00;85.60
27072;DHT22;14613;46.308;25.288;2022-12-26T13:22:28;10.90;85.50
27072;DHT22;14613;46.308;25.288;2022-12-26T13:25:17;10.90;85.50
27072;DHT22;14613;46.308;25.288;2022-12-26T13:27:43;10.90;85.50
27072;DHT22;14613;46.308;25.288;2022-12-26T13:30:12;10.90;85.40
27072;DHT22;14613;46.308;25.288;2022-12-26T13:32:40;10.90;85.30
27072;DHT22;14613;46.308;25.288;2022-12-26T13:35:45;10.80;85.30
27072;DHT22;14613;46.308;25.288;2022-12-26T13:37:54;10.80;85.30
27072;DHT22;14613;46.308;25.288;2022-12-26T13:40:29;10.80;85.30
27072;DHT22;14613;46.308;25.288;2022-12-26T13:43:22;10.70;85.30
27072;DHT22;14613;46.308;25.288;2022-12-26T13:48:58;10.60;85.30
27072;DHT22;14613;46.308;25.288;2022-12-26T13:51:47;10.60;85.30
27072;DHT22;14613;46.308;25.288;2022-12-26T13:54:14;10.50;85.20
27072;DHT22;14613;46.308;25.288;2022-12-26T14:04:38;10.30;85.30
27072;DHT22;14613;46.308;25.288;2022-12-26T14:12:58;10.10;85.30
27072;DHT22;14613;46.308;25.288;2022-12-26T14:21:18;9.80;85.40
27072;DHT22;14613;46.308;25.288;2022-12-26T14:40:35;9.20;85.70
27072;DHT22;14613;46.308;25.288;2022-12-26T14:43:05;9.10;85.80
27072;DHT22;14613;46.308;25.288;2022-12-26T14:45:49;9.00;85.90
27072;DHT22;14613;46.308;25.288;2022-12-26T14:50:44;8.80;86.20
27072;DHT22;14613;46.308;25.288;2022-12-26T14:58:45;8.60;86.30
27072;DHT22;14613;46.308;25.288;2022-12-26T15:15:18;8.10;86.40
27072;DHT22;14613;46.308;25.288;2022-12-26T15:44:13;7.10;88.80
27072;DHT22;14613;46.308;25.288;2022-12-26T15:46:46;7.00;87.90
27072;DHT22;14613;46.308;25.288;2022-12-26T16:00:03;6.80;87.60
27072;DHT22;14613;46.308;25.288;2022-12-26T16:08:25;6.60;87.70
27072;DHT22;14613;46.308;25.288;2022-12-26T16:11:21;6.50;87.90
27072;DHT22;14613;46.308;25.288;2022-12-26T16:16:35;6.30;88.40
27072;DHT22;14613;46.308;25.288;2022-12-26T16:19:20;6.20;88.60
27072;DHT22;14613;46.308;25.288;2022-12-26T16:22:00;6.10;88.70
27072;DHT22;14613;46.308;25.288;2022-12-26T16:24:45;6.10;88.80
27072;DHT22;14613;46.308;25.288;2022-12-26T16:27:16;6.10;88.80
27072;DHT22;14613;46.308;25.288;2022-12-26T16:29:49;6.00;88.70
27072;DHT22;14613;46.308;25.288;2022-12-26T16:32:20;6.00;88.70
27072;DHT22;14613;46.308;25.288;2022-12-26T16:34:47;5.90;88.60
27072;DHT22;14613;46.308;25.288;2022-12-26T16:37:18;6.00;88.70
27072;DHT22;14613;46.308;25.288;2022-12-26T16:40:04;5.90;88.70
27072;DHT22;14613;46.308;25.288;2022-12-26T16:42:31;5.90;88.60
27072;DHT22;14613;46.308;25.288;2022-12-26T16:44:57;5.90;88.40
27072;DHT22;14613;46.308;25.288;2022-12-26T16:47:31;5.80;88.50
27072;DHT22;14613;46.308;25.288;2022-12-26T16:49:58;5.80;88.60
27072;DHT22;14613;46.308;25.288;2022-12-26T16:52:36;5.70;88.60
27072;DHT22;14613;46.308;25.288;2022-12-26T16:57:47;5.50;88.90
27072;DHT22;14613;46.308;25.288;2022-12-26T17:00:17;5.40;89.20
27072;DHT22;14613;46.308;25.288;2022-12-26T17:02:46;5.40;89.30
27072;DHT22;14613;46.308;25.288;2022-12-26T17:05:27;5.30;89.50
27072;DHT22;14613;46.308;25.288;2022-12-26T17:07:55;5.30;89.60
27072;DHT22;14613;46.308;25.288;2022-12-26T17:10:34;5.20;89.70
27072;DHT22;14613;46.308;25.288;2022-12-26T17:13:03;5.10;89.80
27072;DHT22;14613;46.308;25.288;2022-12-26T17:15:33;5.10;89.90
27072;DHT22;14613;46.308;25.288;2022-12-26T17:21:23;5.10;90.00
27072;DHT22;14613;46.308;25.288;2022-12-26T17:24:11;5.10;89.90
27072;DHT22;14613;46.308;25.288;2022-12-26T17:26:40;5.10;89.80
27072;DHT22;14613;46.308;25.288;2022-12-26T17:29:46;5.10;89.80
27072;DHT22;14613;46.308;25.288;2022-12-26T17:34:45;5.10;89.70
27072;DHT22;14613;46.308;25.288;2022-12-26T17:37:21;5.00;89.60
27072;DHT22;14613;46.308;25.288;2022-12-26T17:40:17;5.00;89.50
27072;DHT22;14613;46.308;25.288;2022-12-26T17:42:50;5.00;89.60
27072;DHT22;14613;46.308;25.288;2022-12-26T17:45:21;5.00;89.50
27072;DHT22;14613;46.308;25.288;2022-12-26T17:47:48;5.00;89.50
27072;DHT22;14613;46.308;25.288;2022-12-26T17:50:14;4.90;89.50
27072;DHT22;14613;46.308;25.288;2022-12-26T17:52:41;4.90;89.60
27072;DHT22;14613;46.308;25.288;2022-12-26T17:55:17;4.90;89.80
27072;DHT22;14613;46.308;25.288;2022-12-26T17:57:46;4.80;89.70
27072;DHT22;14613;46.308;25.288;2022-12-26T18:00:17;4.80;89.70
27072;DHT22;14613;46.308;25.288;2022-12-26T18:02:43;4.80;89.70
27072;DHT22;14613;46.308;25.288;2022-12-26T18:05:09;4.80;89.70
27072;DHT22;14613;46.308;25.288;2022-12-26T18:07:35;4.80;89.70
27072;DHT22;14613;46.308;25.288;2022-12-26T18:10:02;4.80;89.70
27072;DHT22;14613;46.308;25.288;2022-12-26T18:12:28;4.80;89.70
27072;DHT22;14613;46.308;25.288;2022-12-26T18:14:54;4.80;89.70
27072;DHT22;14613;46.308;25.288;2022-12-26T18:17:20;4.80;89.70
27072;DHT22;14613;46.308;25.288;2022-12-26T18:19:46;4.80;89.70
27072;DHT22;14613;46.308;25.288;2022-12-26T18:22:16;4.80;89.60
27072;DHT22;14613;46.308;25.288;2022-12-26T18:24:43;4.80;89.50
27072;DHT22;14613;46.308;25.288;2022-12-26T18:27:27;4.80;89.50
27072;DHT22;14613;46.308;25.288;2022-12-26T18:29:53;4.70;89.30
27072;DHT22;14613;46.308;25.288;2022-12-26T18:32:28;4.70;89.30
27072;DHT22;14613;46.308;25.288;2022-12-26T18:34:54;4.70;89.40
27072;DHT22;14613;46.308;25.288;2022-12-26T18:37:22;4.70;89.60
27072;DHT22;14613;46.308;25.288;2022-12-26T18:39:48;4.70;89.60
27072;DHT22;14613;46.308;25.288;2022-12-26T18:42:15;4.70;89.50
27072;DHT22;14613;46.308;25.288;2022-12-26T18:44:42;4.70;89.50
27072;DHT22;14613;46.308;25.288;2022-12-26T18:47:13;4.70;89.60
27072;DHT22;14613;46.308;25.288;2022-12-26T18:49:40;4.70;89.50
27072;DHT22;14613;46.308;25.288;2022-12-26T18:52:07;4.70;89.40
27072;DHT22;14613;46.308;25.288;2022-12-26T18:54:32;4.70;89.40
27072;DHT22;14613;46.308;25.288;2022-12-26T18:57:01;4.60;89.40
27072;DHT22;14613;46.308;25.288;2022-12-26T18:59:27;4.60;89.50
27072;DHT22;14613;46.308;25.288;2022-12-26T19:01:52;4.60;89.50
27072;DHT22;14613;46.308;25.288;2022-12-26T19:04:18;4.60;89.50
27072;DHT22;14613;46.308;25.288;2022-12-26T19:06:44;4.60;89.60
27072;DHT22;14613;46.308;25.288;2022-12-26T19:09:11;4.60;89.50
27072;DHT22;14613;46.308;25.288;2022-12-26T19:11:37;4.60;89.40
27072;DHT22;14613;46.308;25.288;2022-12-26T19:14:04;4.50;89.40
27072;DHT22;14613;46.308;25.288;2022-12-26T19:16:34;4.50;89.40
27072;DHT22;14613;46.308;25.288;2022-12-26T19:19:03;4.50;89.50
27072;DHT22;14613;46.308;25.288;2022-12-26T19:21:29;4.50;89.50
27072;DHT22;14613;46.308;25.288;2022-12-26T19:23:55;4.50;89.50
27072;DHT22;14613;46.308;25.288;2022-12-26T19:26:21;4.50;89.60
27072;DHT22;14613;46.308;25.288;2022-12-26T19:28:54;4.50;89.50
27072;DHT22;14613;46.308;25.288;2022-12-26T19:31:21;4.50;89.40
27072;DHT22;14613;46.308;25.288;2022-12-26T19:33:47;4.50;89.40
27072;DHT22;14613;46.308;25.288;2022-12-26T19:36:13;4.40;89.40
27072;DHT22;14613;46.308;25.288;2022-12-26T19:38:39;4.40;89.60
27072;DHT22;14613;46.308;25.288;2022-12-26T19:41:07;4.40;89.70
27072;DHT22;14613;46.308;25.288;2022-12-26T19:43:34;4.40;89.80
27072;DHT22;14613;46.308;25.288;2022-12-26T19:46:01;4.40;89.90
27072;DHT22;14613;46.308;25.288;2022-12-26T19:48:29;4.40;89.90
27072;DHT22;14613;46.308;25.288;2022-12-26T19:51:09;4.40;89.80
27072;DHT22;14613;46.308;25.288;2022-12-26T19:53:36;4.40;89.70
27072;DHT22;14613;46.308;25.288;2022-12-26T19:56:13;4.40;89.60
27072;DHT22;14613;46.308;25.288;2022-12-26T19:58:39;4.40;89.40
27072;DHT22;14613;46.308;25.288;2022-12-26T20:01:10;4.40;89.40
27072;DHT22;14613;46.308;25.288;2022-12-26T20:03:36;4.30;89.30
27072;DHT22;14613;46.308;25.288;2022-12-26T20:06:13;4.30;89.30
27072;DHT22;14613;46.308;25.288;2022-12-26T20:08:40;4.30;90.00
27072;DHT22;14613;46.308;25.288;2022-12-26T20:11:14;4.30;89.50
27072;DHT22;14613;46.308;25.288;2022-12-26T20:13:41;4.30;89.60
27072;DHT22;14613;46.308;25.288;2022-12-26T20:16:10;4.20;89.70
27072;DHT22;14613;46.308;25.288;2022-12-26T20:18:36;4.20;89.70